sensor_id;sensor_type;location;lat;lon;timestamp;temperature;humidity
563;DHT22;266;49.514;8.294;2023-03-11T00:00:14;2.50;99.90
563;DHT22;266;49.514;8.294;2023-03-11T00:02:44;2.50;99.90
563;DHT22;266;49.514;8.294;2023-03-11T00:05:13;2.50;99.90
563;DHT22;266;49.514;8.294;2023-03-11T00:07:43;2.50;99.90
563;DHT22;266;49.514;8.294;2023-03-11T00:10:13;2.50;99.90
563;DHT22;266;49.514;8.294;2023-03-11T00:12:42;2.50;99.90
563;DHT22;266;49.514;8.294;2023-03-11T00:15:10;2.60;99.90
563;DHT22;266;49.514;8.294;2023-03-11T00:17:40;2.60;99.90
563;DHT22;266;49.514;8.294;2023-03-11T00:20:14;2.60;99.90
563;DHT22;266;49.514;8.294;2023-03-11T00:22:43;2.70;99.90
563;DHT22;266;49.514;8.294;2023-03-11T00:25:11;2.70;99.90
563;DHT22;266;49.514;8.294;2023-03-11T00:27:39;2.70;99.90
563;DHT22;266;49.514;8.294;2023-03-11T00:30:08;2.70;99.90
563;DHT22;266;49.514;8.294;2023-03-11T00:32:37;2.80;99.90
563;DHT22;266;49.514;8.294;2023-03-11T00:35:09;2.80;99.90
563;DHT22;266;49.514;8.294;2023-03-11T00:37:38;2.80;99.90
563;DHT22;266;49.514;8.294;2023-03-11T00:40:09;2.80;99.90
563;DHT22;266;49.514;8.294;2023-03-11T00:42:38;2.80;99.90
563;DHT22;266;49.514;8.294;2023-03-11T00:45:07;2.70;99.90
563;DHT22;266;49.514;8.294;2023-03-11T00:47:35;2.80;99.90
563;DHT22;266;49.514;8.294;2023-03-11T00:50:03;2.70;99.90
563;DHT22;266;49.514;8.294;2023-03-11T00:52:33;2.70;99.90
563;DHT22;266;49.514;8.294;2023-03-11T00:55:00;2.60;99.90
563;DHT22;266;49.514;8.294;2023-03-11T00:57:28;2.60;99.90
563;DHT22;266;49.514;8.294;2023-03-11T00:59:58;2.60;99.90
563;DHT22;266;49.514;8.294;2023-03-11T01:02:26;2.60;99.90
563;DHT22;266;49.514;8.294;2023-03-11T01:04:54;2.50;99.90
563;DHT22;266;49.514;8.294;2023-03-11T01:07:22;2.50;99.90
563;DHT22;266;49.514;8.294;2023-03-11T01:09:52;2.40;99.90
563;DHT22;266;49.514;8.294;2023-03-11T01:12:19;2.40;99.90
563;DHT22;266;49.514;8.294;2023-03-11T01:14:47;2.40;99.90
563;DHT22;266;49.514;8.294;2023-03-11T01:17:15;2.40;99.90
563;DHT22;266;49.514;8.294;2023-03-11T01:19:44;2.30;99.90
563;DHT22;266;49.514;8.294;2023-03-11T01:22:12;2.30;99.90
563;DHT22;266;49.514;8.294;2023-03-11T01:24:40;2.30;99.90
563;DHT22;266;49.514;8.294;2023-03-11T01:27:09;2.30;99.90
563;DHT22;266;49.514;8.294;2023-03-11T01:29:37;2.30;99.90
563;DHT22;266;49.514;8.294;2023-03-11T01:32:06;2.20;99.90
563;DHT22;266;49.514;8.294;2023-03-11T01:34:34;2.20;99.90
563;DHT22;266;49.514;8.294;2023-03-11T01:37:02;2.20;99.90
563;DHT22;266;49.514;8.294;2023-03-11T01:39:30;2.20;99.90
563;DHT22;266;49.514;8.294;2023-03-11T01:41:58;2.20;99.90
563;DHT22;266;49.514;8.294;2023-03-11T01:44:28;2.20;99.90
563;DHT22;266;49.514;8.294;2023-03-11T01:47:35;2.20;99.90
563;DHT22;266;49.514;8.294;2023-03-11T01:50:04;2.20;99.90
563;DHT22;266;49.514;8.294;2023-03-11T01:52:34;2.20;99.90
563;DHT22;266;49.514;8.294;2023-03-11T01:55:05;2.10;99.90
563;DHT22;266;49.514;8.294;2023-03-11T01:57:33;2.10;99.90
563;DHT22;266;49.514;8.294;2023-03-11T02:00:07;2.10;99.90
563;DHT22;266;49.514;8.294;2023-03-11T02:02:40;2.20;99.90
563;DHT22;266;49.514;8.294;2023-03-11T02:05:08;2.20;99.90
563;DHT22;266;49.514;8.294;2023-03-11T02:07:37;2.20;99.90
563;DHT22;266;49.514;8.294;2023-03-11T02:10:07;2.20;99.90
563;DHT22;266;49.514;8.294;2023-03-11T02:12:35;2.20;99.90
563;DHT22;266;49.514;8.294;2023-03-11T02:15:07;2.20;99.90
563;DHT22;266;49.514;8.294;2023-03-11T02:17:36;2.20;99.90
563;DHT22;266;49.514;8.294;2023-03-11T02:20:13;2.20;99.90
563;DHT22;266;49.514;8.294;2023-03-11T02:22:45;2.20;99.90
563;DHT22;266;49.514;8.294;2023-03-11T02:25:20;2.30;99.90
563;DHT22;266;49.514;8.294;2023-03-11T02:27:52;2.30;99.90
563;DHT22;266;49.514;8.294;2023-03-11T02:30:22;2.30;99.90
563;DHT22;266;49.514;8.294;2023-03-11T02:32:54;2.30;99.90
563;DHT22;266;49.514;8.294;2023-03-11T02:35:23;2.30;99.90
563;DHT22;266;49.514;8.294;2023-03-11T02:37:52;2.30;99.90
563;DHT22;266;49.514;8.294;2023-03-11T02:40:34;2.30;99.90
563;DHT22;266;49.514;8.294;2023-03-11T02:43:06;2.30;99.90
563;DHT22;266;49.514;8.294;2023-03-11T02:45:37;2.30;99.90
563;DHT22;266;49.514;8.294;2023-03-11T02:48:07;2.30;99.90
563;DHT22;266;49.514;8.294;2023-03-11T02:50:35;2.30;99.90
563;DHT22;266;49.514;8.294;2023-03-11T02:53:04;2.20;99.90
563;DHT22;266;49.514;8.294;2023-03-11T02:55:32;2.10;99.90
563;DHT22;266;49.514;8.294;2023-03-11T02:58:00;2.10;99.90
563;DHT22;266;49.514;8.294;2023-03-11T03:00:29;2.10;99.90
563;DHT22;266;49.514;8.294;2023-03-11T03:02:57;2.00;99.90
563;DHT22;266;49.514;8.294;2023-03-11T03:05:25;1.90;99.90
563;DHT22;266;49.514;8.294;2023-03-11T03:07:53;1.90;99.90
563;DHT22;266;49.514;8.294;2023-03-11T03:10:22;1.90;99.90
563;DHT22;266;49.514;8.294;2023-03-11T03:12:49;1.90;99.90
563;DHT22;266;49.514;8.294;2023-03-11T03:15:17;1.90;99.90
563;DHT22;266;49.514;8.294;2023-03-11T03:17:47;1.80;99.90
563;DHT22;266;49.514;8.294;2023-03-11T03:20:17;1.80;99.90
563;DHT22;266;49.514;8.294;2023-03-11T03:22:49;1.80;99.90
563;DHT22;266;49.514;8.294;2023-03-11T03:25:17;1.80;99.90
563;DHT22;266;49.514;8.294;2023-03-11T03:27:45;1.90;99.90
563;DHT22;266;49.514;8.294;2023-03-11T03:30:13;1.80;99.90
563;DHT22;266;49.514;8.294;2023-03-11T03:32:42;1.80;99.90
563;DHT22;266;49.514;8.294;2023-03-11T03:35:11;1.70;99.90
563;DHT22;266;49.514;8.294;2023-03-11T03:37:39;1.60;99.90
563;DHT22;266;49.514;8.294;2023-03-11T03:40:08;1.60;99.90
563;DHT22;266;49.514;8.294;2023-03-11T03:42:37;1.60;99.90
563;DHT22;266;49.514;8.294;2023-03-11T03:45:07;1.60;99.90
563;DHT22;266;49.514;8.294;2023-03-11T03:47:35;1.60;99.90
563;DHT22;266;49.514;8.294;2023-03-11T03:50:05;1.50;99.90
563;DHT22;266;49.514;8.294;2023-03-11T03:52:35;1.50;99.90
563;DHT22;266;49.514;8.294;2023-03-11T03:55:04;1.50;99.90
563;DHT22;266;49.514;8.294;2023-03-11T03:57:32;1.50;99.90
563;DHT22;266;49.514;8.294;2023-03-11T04:00:00;1.50;99.90
563;DHT22;266;49.514;8.294;2023-03-11T04:02:30;1.50;99.90
563;DHT22;266;49.514;8.294;2023-03-11T04:04:58;1.50;99.90
563;DHT22;266;49.514;8.294;2023-03-11T04:07:26;1.50;99.90
563;DHT22;266;49.514;8.294;2023-03-11T04:09:58;1.50;99.90
563;DHT22;266;49.514;8.294;2023-03-11T04:12:26;1.50;99.90
563;DHT22;266;49.514;8.294;2023-03-11T04:14:54;1.50;99.90
563;DHT22;266;49.514;8.294;2023-03-11T04:17:22;1.50;99.90
563;DHT22;266;49.514;8.294;2023-03-11T04:19:50;1.50;99.90
563;DHT22;266;49.514;8.294;2023-03-11T04:22:18;1.60;99.90
563;DHT22;266;49.514;8.294;2023-03-11T04:24:46;1.50;99.90
563;DHT22;266;49.514;8.294;2023-03-11T04:27:16;1.60;99.90
563;DHT22;266;49.514;8.294;2023-03-11T04:29:43;1.60;99.90
563;DHT22;266;49.514;8.294;2023-03-11T04:32:14;1.60;99.90
563;DHT22;266;49.514;8.294;2023-03-11T04:34:42;1.70;99.90
563;DHT22;266;49.514;8.294;2023-03-11T04:37:10;1.70;99.90
563;DHT22;266;49.514;8.294;2023-03-11T04:39:38;1.70;99.90
563;DHT22;266;49.514;8.294;2023-03-11T04:42:06;1.80;99.90
563;DHT22;266;49.514;8.294;2023-03-11T04:44:35;1.80;99.90
563;DHT22;266;49.514;8.294;2023-03-11T04:47:03;1.80;99.90
563;DHT22;266;49.514;8.294;2023-03-11T04:49:31;1.80;99.90
563;DHT22;266;49.514;8.294;2023-03-11T04:51:59;1.80;99.90
563;DHT22;266;49.514;8.294;2023-03-11T04:54:27;1.80;99.90
563;DHT22;266;49.514;8.294;2023-03-11T04:56:55;1.80;99.90
563;DHT22;266;49.514;8.294;2023-03-11T04:59:23;1.70;99.90
563;DHT22;266;49.514;8.294;2023-03-11T05:01:52;1.70;99.90
563;DHT22;266;49.514;8.294;2023-03-11T05:04:20;1.60;99.90
563;DHT22;266;49.514;8.294;2023-03-11T05:06:48;1.50;99.90
563;DHT22;266;49.514;8.294;2023-03-11T05:09:17;1.50;99.90
563;DHT22;266;49.514;8.294;2023-03-11T05:11:45;1.50;99.90
563;DHT22;266;49.514;8.294;2023-03-11T05:14:13;1.50;99.90
563;DHT22;266;49.514;8.294;2023-03-11T05:16:41;1.40;99.90
563;DHT22;266;49.514;8.294;2023-03-11T05:19:10;1.40;99.90
563;DHT22;266;49.514;8.294;2023-03-11T05:21:52;1.40;99.90
563;DHT22;266;49.514;8.294;2023-03-11T05:24:20;1.40;99.90
563;DHT22;266;49.514;8.294;2023-03-11T05:26:48;1.30;99.90
563;DHT22;266;49.514;8.294;2023-03-11T05:29:15;1.30;99.90
563;DHT22;266;49.514;8.294;2023-03-11T05:31:43;1.30;99.90
563;DHT22;266;49.514;8.294;2023-03-11T05:34:14;1.20;99.90
563;DHT22;266;49.514;8.294;2023-03-11T05:36:42;1.20;99.90
563;DHT22;266;49.514;8.294;2023-03-11T05:39:10;1.20;99.90
563;DHT22;266;49.514;8.294;2023-03-11T05:41:38;1.20;99.90
563;DHT22;266;49.514;8.294;2023-03-11T05:44:06;1.20;99.90
563;DHT22;266;49.514;8.294;2023-03-11T05:46:34;1.20;99.90
563;DHT22;266;49.514;8.294;2023-03-11T05:49:02;1.10;99.90
563;DHT22;266;49.514;8.294;2023-03-11T05:51:31;1.20;99.90
563;DHT22;266;49.514;8.294;2023-03-11T05:54:00;1.10;99.90
563;DHT22;266;49.514;8.294;2023-03-11T05:56:27;1.10;99.90
563;DHT22;266;49.514;8.294;2023-03-11T05:58:56;1.20;99.90
563;DHT22;266;49.514;8.294;2023-03-11T06:01:24;1.20;99.90
563;DHT22;266;49.514;8.294;2023-03-11T06:03:52;1.20;99.90
563;DHT22;266;49.514;8.294;2023-03-11T06:06:20;1.20;99.90
563;DHT22;266;49.514;8.294;2023-03-11T06:08:50;1.20;99.90
563;DHT22;266;49.514;8.294;2023-03-11T06:11:19;1.10;99.90
563;DHT22;266;49.514;8.294;2023-03-11T06:13:51;1.10;99.90
563;DHT22;266;49.514;8.294;2023-03-11T06:16:19;1.10;99.90
563;DHT22;266;49.514;8.294;2023-03-11T06:18:48;1.10;99.90
563;DHT22;266;49.514;8.294;2023-03-11T06:21:17;1.10;99.90
563;DHT22;266;49.514;8.294;2023-03-11T06:23:46;1.10;99.90
563;DHT22;266;49.514;8.294;2023-03-11T06:26:17;1.20;99.90
563;DHT22;266;49.514;8.294;2023-03-11T06:28:46;1.20;99.90
563;DHT22;266;49.514;8.294;2023-03-11T06:31:16;1.20;99.90
563;DHT22;266;49.514;8.294;2023-03-11T06:33:45;1.20;99.90
563;DHT22;266;49.514;8.294;2023-03-11T06:36:16;1.20;99.90
563;DHT22;266;49.514;8.294;2023-03-11T06:38:45;1.30;99.90
563;DHT22;266;49.514;8.294;2023-03-11T06:41:15;1.40;99.90
563;DHT22;266;49.514;8.294;2023-03-11T06:43:43;1.40;99.90
563;DHT22;266;49.514;8.294;2023-03-11T06:46:14;1.40;99.90
563;DHT22;266;49.514;8.294;2023-03-11T06:48:43;1.50;99.90
563;DHT22;266;49.514;8.294;2023-03-11T06:51:12;1.50;99.90
563;DHT22;266;49.514;8.294;2023-03-11T06:53:40;1.50;99.90
563;DHT22;266;49.514;8.294;2023-03-11T06:56:09;1.70;99.90
563;DHT22;266;49.514;8.294;2023-03-11T06:58:40;1.70;99.90
563;DHT22;266;49.514;8.294;2023-03-11T07:01:11;1.80;99.90
563;DHT22;266;49.514;8.294;2023-03-11T07:03:39;1.80;99.90
563;DHT22;266;49.514;8.294;2023-03-11T07:06:11;1.90;99.90
563;DHT22;266;49.514;8.294;2023-03-11T07:08:39;1.90;99.90
563;DHT22;266;49.514;8.294;2023-03-11T07:11:09;2.00;99.90
563;DHT22;266;49.514;8.294;2023-03-11T07:13:41;2.00;99.90
563;DHT22;266;49.514;8.294;2023-03-11T07:16:11;2.10;99.90
563;DHT22;266;49.514;8.294;2023-03-11T07:18:42;2.10;99.90
563;DHT22;266;49.514;8.294;2023-03-11T07:21:12;2.20;99.90
563;DHT22;266;49.514;8.294;2023-03-11T07:23:41;2.30;99.90
563;DHT22;266;49.514;8.294;2023-03-11T07:26:10;2.40;99.90
563;DHT22;266;49.514;8.294;2023-03-11T07:28:39;2.50;99.90
563;DHT22;266;49.514;8.294;2023-03-11T07:31:08;2.60;99.90
563;DHT22;266;49.514;8.294;2023-03-11T07:33:36;2.80;99.90
563;DHT22;266;49.514;8.294;2023-03-11T07:36:06;3.10;99.90
563;DHT22;266;49.514;8.294;2023-03-11T07:38:35;3.40;99.90
563;DHT22;266;49.514;8.294;2023-03-11T07:41:03;3.80;99.90
563;DHT22;266;49.514;8.294;2023-03-11T07:43:32;4.20;99.90
563;DHT22;266;49.514;8.294;2023-03-11T07:46:07;4.60;99.90
563;DHT22;266;49.514;8.294;2023-03-11T07:48:37;4.90;99.90
563;DHT22;266;49.514;8.294;2023-03-11T07:51:06;5.20;99.90
563;DHT22;266;49.514;8.294;2023-03-11T07:53:36;5.60;99.90
563;DHT22;266;49.514;8.294;2023-03-11T07:56:06;5.90;99.90
563;DHT22;266;49.514;8.294;2023-03-11T07:58:34;6.20;99.90
563;DHT22;266;49.514;8.294;2023-03-11T08:01:05;6.10;99.90
563;DHT22;266;49.514;8.294;2023-03-11T08:03:34;6.30;99.90
563;DHT22;266;49.514;8.294;2023-03-11T08:06:02;6.70;99.90
563;DHT22;266;49.514;8.294;2023-03-11T08:08:30;7.20;99.90
563;DHT22;266;49.514;8.294;2023-03-11T08:11:02;7.40;99.90
563;DHT22;266;49.514;8.294;2023-03-11T08:13:30;7.30;99.90
563;DHT22;266;49.514;8.294;2023-03-11T08:15:57;7.40;99.90
563;DHT22;266;49.514;8.294;2023-03-11T08:18:28;7.30;99.90
563;DHT22;266;49.514;8.294;2023-03-11T08:20:57;7.30;99.90
563;DHT22;266;49.514;8.294;2023-03-11T08:23:25;7.50;99.90
563;DHT22;266;49.514;8.294;2023-03-11T08:25:53;7.80;99.90
563;DHT22;266;49.514;8.294;2023-03-11T08:28:21;7.90;99.90
563;DHT22;266;49.514;8.294;2023-03-11T08:30:49;8.00;99.90
563;DHT22;266;49.514;8.294;2023-03-11T08:33:17;8.00;99.90
563;DHT22;266;49.514;8.294;2023-03-11T08:35:46;8.00;99.90
563;DHT22;266;49.514;8.294;2023-03-11T08:38:14;8.10;99.90
563;DHT22;266;49.514;8.294;2023-03-11T08:40:42;8.50;99.90
563;DHT22;266;49.514;8.294;2023-03-11T08:43:11;8.50;99.90
563;DHT22;266;49.514;8.294;2023-03-11T08:45:40;8.70;99.90
563;DHT22;266;49.514;8.294;2023-03-11T08:48:12;8.80;99.90
563;DHT22;266;49.514;8.294;2023-03-11T08:50:40;9.10;99.90
563;DHT22;266;49.514;8.294;2023-03-11T08:53:22;9.00;99.90
563;DHT22;266;49.514;8.294;2023-03-11T08:55:50;9.40;99.90
563;DHT22;266;49.514;8.294;2023-03-11T08:58:19;9.60;99.90
563;DHT22;266;49.514;8.294;2023-03-11T09:00:47;9.60;99.90
563;DHT22;266;49.514;8.294;2023-03-11T09:03:15;9.40;99.90
563;DHT22;266;49.514;8.294;2023-03-11T09:05:43;9.40;99.90
563;DHT22;266;49.514;8.294;2023-03-11T09:08:11;9.50;99.90
563;DHT22;266;49.514;8.294;2023-03-11T09:10:40;9.60;99.90
563;DHT22;266;49.514;8.294;2023-03-11T09:13:08;9.80;99.90
563;DHT22;266;49.514;8.294;2023-03-11T09:15:36;9.20;99.90
563;DHT22;266;49.514;8.294;2023-03-11T09:18:05;8.60;99.90
563;DHT22;266;49.514;8.294;2023-03-11T09:20:36;8.80;99.90
563;DHT22;266;49.514;8.294;2023-03-11T09:23:05;9.60;99.90
563;DHT22;266;49.514;8.294;2023-03-11T09:25:32;9.60;99.90
563;DHT22;266;49.514;8.294;2023-03-11T09:28:02;9.40;99.90
563;DHT22;266;49.514;8.294;2023-03-11T09:30:30;8.80;99.90
563;DHT22;266;49.514;8.294;2023-03-11T09:32:58;8.20;99.90
563;DHT22;266;49.514;8.294;2023-03-11T09:35:26;7.50;99.90
563;DHT22;266;49.514;8.294;2023-03-11T09:37:54;7.20;99.90
563;DHT22;266;49.514;8.294;2023-03-11T09:40:24;7.60;99.90
563;DHT22;266;49.514;8.294;2023-03-11T09:43:00;8.50;99.90
563;DHT22;266;49.514;8.294;2023-03-11T09:45:34;9.00;99.90
563;DHT22;266;49.514;8.294;2023-03-11T09:48:14;9.50;99.90
563;DHT22;266;49.514;8.294;2023-03-11T09:50:51;9.40;99.90
563;DHT22;266;49.514;8.294;2023-03-11T09:53:28;9.80;99.90
563;DHT22;266;49.514;8.294;2023-03-11T09:56:01;9.90;99.90
563;DHT22;266;49.514;8.294;2023-03-11T09:58:36;10.30;99.90
563;DHT22;266;49.514;8.294;2023-03-11T10:01:15;10.40;99.90
563;DHT22;266;49.514;8.294;2023-03-11T10:03:44;10.80;99.90
563;DHT22;266;49.514;8.294;2023-03-11T10:06:17;10.80;99.90
563;DHT22;266;49.514;8.294;2023-03-11T10:08:53;10.70;99.90
563;DHT22;266;49.514;8.294;2023-03-11T10:11:45;10.00;99.90
563;DHT22;266;49.514;8.294;2023-03-11T10:14:29;9.30;99.90
563;DHT22;266;49.514;8.294;2023-03-11T10:17:12;8.20;99.90
563;DHT22;266;49.514;8.294;2023-03-11T10:19:48;7.50;99.90
563;DHT22;266;49.514;8.294;2023-03-11T10:22:21;7.30;99.90
563;DHT22;266;49.514;8.294;2023-03-11T10:24:59;7.70;99.90
563;DHT22;266;49.514;8.294;2023-03-11T10:27:33;8.00;99.90
563;DHT22;266;49.514;8.294;2023-03-11T10:30:08;8.30;99.90
563;DHT22;266;49.514;8.294;2023-03-11T10:32:43;9.00;99.90
563;DHT22;266;49.514;8.294;2023-03-11T10:35:17;9.20;99.90
563;DHT22;266;49.514;8.294;2023-03-11T10:37:50;8.80;99.90
563;DHT22;266;49.514;8.294;2023-03-11T10:40:25;8.20;99.90
563;DHT22;266;49.514;8.294;2023-03-11T10:42:57;7.90;99.90
563;DHT22;266;49.514;8.294;2023-03-11T10:45:28;7.50;99.90
563;DHT22;266;49.514;8.294;2023-03-11T10:48:00;7.10;99.90
563;DHT22;266;49.514;8.294;2023-03-11T10:50:33;6.80;99.90
563;DHT22;266;49.514;8.294;2023-03-11T10:53:07;6.90;99.90
563;DHT22;266;49.514;8.294;2023-03-11T10:55:44;7.30;99.90
563;DHT22;266;49.514;8.294;2023-03-11T10:58:14;7.70;99.90
563;DHT22;266;49.514;8.294;2023-03-11T11:00:43;7.90;99.90
563;DHT22;266;49.514;8.294;2023-03-11T11:03:16;7.80;99.90
563;DHT22;266;49.514;8.294;2023-03-11T11:05:56;7.50;99.90
563;DHT22;266;49.514;8.294;2023-03-11T11:08:25;7.70;99.90
563;DHT22;266;49.514;8.294;2023-03-11T11:10:54;7.90;99.90
563;DHT22;266;49.514;8.294;2023-03-11T11:13:24;8.20;99.90
563;DHT22;266;49.514;8.294;2023-03-11T11:15:55;8.30;99.90
563;DHT22;266;49.514;8.294;2023-03-11T11:18:28;8.70;99.90
563;DHT22;266;49.514;8.294;2023-03-11T11:21:02;8.90;99.90
563;DHT22;266;49.514;8.294;2023-03-11T11:23:35;9.20;99.90
563;DHT22;266;49.514;8.294;2023-03-11T11:26:05;9.30;99.90
563;DHT22;266;49.514;8.294;2023-03-11T11:28:34;9.20;99.90
563;DHT22;266;49.514;8.294;2023-03-11T11:31:05;9.10;99.90
563;DHT22;266;49.514;8.294;2023-03-11T11:33:38;9.00;99.90
563;DHT22;266;49.514;8.294;2023-03-11T11:36:13;8.40;99.90
563;DHT22;266;49.514;8.294;2023-03-11T11:38:42;8.30;99.90
563;DHT22;266;49.514;8.294;2023-03-11T11:41:14;8.30;99.90
563;DHT22;266;49.514;8.294;2023-03-11T11:43:47;8.20;99.90
563;DHT22;266;49.514;8.294;2023-03-11T11:46:21;7.90;99.90
563;DHT22;266;49.514;8.294;2023-03-11T11:49:04;7.80;99.90
563;DHT22;266;49.514;8.294;2023-03-11T11:51:37;8.00;99.90
563;DHT22;266;49.514;8.294;2023-03-11T11:54:14;8.20;99.90
563;DHT22;266;49.514;8.294;2023-03-11T11:56:43;8.20;99.90
563;DHT22;266;49.514;8.294;2023-03-11T11:59:16;8.00;99.90
563;DHT22;266;49.514;8.294;2023-03-11T12:01:54;8.00;99.90
563;DHT22;266;49.514;8.294;2023-03-11T12:04:37;8.00;99.90
563;DHT22;266;49.514;8.294;2023-03-11T12:07:21;8.20;99.90
563;DHT22;266;49.514;8.294;2023-03-11T12:09:57;8.30;99.90
563;DHT22;266;49.514;8.294;2023-03-11T12:12:49;8.80;99.90
563;DHT22;266;49.514;8.294;2023-03-11T12:15:21;9.30;99.90
563;DHT22;266;49.514;8.294;2023-03-11T12:17:54;9.70;99.90
563;DHT22;266;49.514;8.294;2023-03-11T12:20:30;9.80;99.90
563;DHT22;266;49.514;8.294;2023-03-11T12:23:10;10.20;99.90
563;DHT22;266;49.514;8.294;2023-03-11T12:25:52;10.50;99.90
563;DHT22;266;49.514;8.294;2023-03-11T12:28:27;9.70;99.90
563;DHT22;266;49.514;8.294;2023-03-11T12:30:59;9.40;99.90
563;DHT22;266;49.514;8.294;2023-03-11T12:33:33;9.50;99.90
563;DHT22;266;49.514;8.294;2023-03-11T12:36:05;9.50;99.90
563;DHT22;266;49.514;8.294;2023-03-11T12:38:38;9.60;99.90
563;DHT22;266;49.514;8.294;2023-03-11T12:41:12;9.70;99.90
563;DHT22;266;49.514;8.294;2023-03-11T12:47:15;9.80;99.90
563;DHT22;266;49.514;8.294;2023-03-11T12:49:44;10.10;99.90
563;DHT22;266;49.514;8.294;2023-03-11T12:55:33;10.00;99.90
563;DHT22;266;49.514;8.294;2023-03-11T12:58:35;10.20;99.90
563;DHT22;266;49.514;8.294;2023-03-11T13:01:34;10.60;99.90
563;DHT22;266;49.514;8.294;2023-03-11T13:04:35;11.00;99.90
563;DHT22;266;49.514;8.294;2023-03-11T13:10:19;10.70;99.90
563;DHT22;266;49.514;8.294;2023-03-11T13:12:48;10.60;99.90
563;DHT22;266;49.514;8.294;2023-03-11T13:15:37;10.90;99.90
563;DHT22;266;49.514;8.294;2023-03-11T13:18:17;11.10;99.90
563;DHT22;266;49.514;8.294;2023-03-11T13:20:55;11.20;99.90
563;DHT22;266;49.514;8.294;2023-03-11T13:23:35;10.70;99.90
563;DHT22;266;49.514;8.294;2023-03-11T13:26:28;10.40;99.90
563;DHT22;266;49.514;8.294;2023-03-11T13:32:27;9.10;99.90
563;DHT22;266;49.514;8.294;2023-03-11T13:35:04;8.80;99.90
563;DHT22;266;49.514;8.294;2023-03-11T13:37:43;8.70;99.90
563;DHT22;266;49.514;8.294;2023-03-11T13:40:25;8.50;99.90
563;DHT22;266;49.514;8.294;2023-03-11T13:43:02;8.20;99.90
563;DHT22;266;49.514;8.294;2023-03-11T13:45:32;8.40;99.90
563;DHT22;266;49.514;8.294;2023-03-11T13:48:05;8.40;99.90
563;DHT22;266;49.514;8.294;2023-03-11T13:50:36;8.10;99.90
563;DHT22;266;49.514;8.294;2023-03-11T13:53:09;8.10;99.90
563;DHT22;266;49.514;8.294;2023-03-11T13:55:44;8.00;99.90
563;DHT22;266;49.514;8.294;2023-03-11T13:58:15;7.90;99.90
563;DHT22;266;49.514;8.294;2023-03-11T14:00:48;7.70;99.90
563;DHT22;266;49.514;8.294;2023-03-11T14:03:17;7.50;99.90
563;DHT22;266;49.514;8.294;2023-03-11T14:05:49;7.50;99.90
563;DHT22;266;49.514;8.294;2023-03-11T14:08:20;7.30;99.90
563;DHT22;266;49.514;8.294;2023-03-11T14:10:52;7.20;99.90
563;DHT22;266;49.514;8.294;2023-03-11T14:13:23;7.10;99.90
563;DHT22;266;49.514;8.294;2023-03-11T14:15:56;7.20;99.90
563;DHT22;266;49.514;8.294;2023-03-11T14:18:31;7.30;99.90
563;DHT22;266;49.514;8.294;2023-03-11T14:21:00;7.50;99.90
563;DHT22;266;49.514;8.294;2023-03-11T14:23:35;7.60;99.90
563;DHT22;266;49.514;8.294;2023-03-11T14:26:06;7.50;99.90
563;DHT22;266;49.514;8.294;2023-03-11T14:28:41;7.40;99.90
563;DHT22;266;49.514;8.294;2023-03-11T14:31:22;7.20;99.90
563;DHT22;266;49.514;8.294;2023-03-11T14:33:55;7.10;99.90
563;DHT22;266;49.514;8.294;2023-03-11T14:36:24;7.10;99.90
563;DHT22;266;49.514;8.294;2023-03-11T14:38:52;7.20;99.90
563;DHT22;266;49.514;8.294;2023-03-11T14:41:20;7.30;99.90
563;DHT22;266;49.514;8.294;2023-03-11T14:43:51;7.20;99.90
563;DHT22;266;49.514;8.294;2023-03-11T14:46:22;7.10;99.90
563;DHT22;266;49.514;8.294;2023-03-11T14:48:52;7.00;99.90
563;DHT22;266;49.514;8.294;2023-03-11T14:51:24;6.90;99.90
563;DHT22;266;49.514;8.294;2023-03-11T14:54:02;6.90;99.90
563;DHT22;266;49.514;8.294;2023-03-11T14:56:32;6.90;99.90
563;DHT22;266;49.514;8.294;2023-03-11T14:59:05;6.80;99.90
563;DHT22;266;49.514;8.294;2023-03-11T15:01:38;6.80;99.90
563;DHT22;266;49.514;8.294;2023-03-11T15:04:10;6.80;99.90
563;DHT22;266;49.514;8.294;2023-03-11T15:06:41;6.80;99.90
563;DHT22;266;49.514;8.294;2023-03-11T15:09:11;6.80;99.90
563;DHT22;266;49.514;8.294;2023-03-11T15:11:44;6.70;99.90
563;DHT22;266;49.514;8.294;2023-03-11T15:14:24;6.60;99.90
563;DHT22;266;49.514;8.294;2023-03-11T15:16:53;6.60;99.90
563;DHT22;266;49.514;8.294;2023-03-11T15:19:30;6.70;99.90
563;DHT22;266;49.514;8.294;2023-03-11T15:22:04;6.80;99.90
563;DHT22;266;49.514;8.294;2023-03-11T15:24:33;6.90;99.90
563;DHT22;266;49.514;8.294;2023-03-11T15:27:03;7.00;99.90
563;DHT22;266;49.514;8.294;2023-03-11T15:29:34;6.90;99.90
563;DHT22;266;49.514;8.294;2023-03-11T15:32:24;7.00;99.90
563;DHT22;266;49.514;8.294;2023-03-11T15:35:00;7.10;99.90
563;DHT22;266;49.514;8.294;2023-03-11T15:37:28;7.10;99.90
563;DHT22;266;49.514;8.294;2023-03-11T15:39:57;7.10;99.90
563;DHT22;266;49.514;8.294;2023-03-11T15:42:38;7.00;99.90
563;DHT22;266;49.514;8.294;2023-03-11T15:45:14;6.90;99.90
563;DHT22;266;49.514;8.294;2023-03-11T15:47:43;6.70;99.90
563;DHT22;266;49.514;8.294;2023-03-11T15:50:20;6.60;99.90
563;DHT22;266;49.514;8.294;2023-03-11T15:52:56;6.50;99.90
563;DHT22;266;49.514;8.294;2023-03-11T15:55:25;6.60;99.90
563;DHT22;266;49.514;8.294;2023-03-11T15:57:59;6.50;99.90
563;DHT22;266;49.514;8.294;2023-03-11T16:00:29;6.40;99.90
563;DHT22;266;49.514;8.294;2023-03-11T16:02:57;6.30;99.90
563;DHT22;266;49.514;8.294;2023-03-11T16:05:26;6.20;99.90
563;DHT22;266;49.514;8.294;2023-03-11T16:07:54;6.20;99.90
563;DHT22;266;49.514;8.294;2023-03-11T16:10:23;6.00;99.90
563;DHT22;266;49.514;8.294;2023-03-11T16:12:51;6.10;99.90
563;DHT22;266;49.514;8.294;2023-03-11T16:15:21;6.20;99.90
563;DHT22;266;49.514;8.294;2023-03-11T16:17:53;6.20;99.90
563;DHT22;266;49.514;8.294;2023-03-11T16:20:22;6.20;99.90
563;DHT22;266;49.514;8.294;2023-03-11T16:22:52;6.20;99.90
563;DHT22;266;49.514;8.294;2023-03-11T16:25:23;6.20;99.90
563;DHT22;266;49.514;8.294;2023-03-11T16:27:54;6.20;99.90
563;DHT22;266;49.514;8.294;2023-03-11T16:30:25;6.10;99.90
563;DHT22;266;49.514;8.294;2023-03-11T16:32:55;6.10;99.90
563;DHT22;266;49.514;8.294;2023-03-11T16:35:24;6.10;99.90
563;DHT22;266;49.514;8.294;2023-03-11T16:37:52;6.00;99.90
563;DHT22;266;49.514;8.294;2023-03-11T16:40:22;5.90;99.90
563;DHT22;266;49.514;8.294;2023-03-11T16:42:54;5.80;99.90
563;DHT22;266;49.514;8.294;2023-03-11T16:45:23;5.60;99.90
563;DHT22;266;49.514;8.294;2023-03-11T16:47:51;5.50;99.90
563;DHT22;266;49.514;8.294;2023-03-11T16:50:21;5.50;99.90
563;DHT22;266;49.514;8.294;2023-03-11T16:52:50;5.30;99.90
563;DHT22;266;49.514;8.294;2023-03-11T16:55:18;5.30;99.90
563;DHT22;266;49.514;8.294;2023-03-11T16:57:46;5.10;99.90
563;DHT22;266;49.514;8.294;2023-03-11T17:00:14;5.00;99.90
563;DHT22;266;49.514;8.294;2023-03-11T17:02:44;4.90;99.90
563;DHT22;266;49.514;8.294;2023-03-11T17:05:12;4.80;99.90
563;DHT22;266;49.514;8.294;2023-03-11T17:07:41;4.70;99.90
563;DHT22;266;49.514;8.294;2023-03-11T17:10:10;4.70;99.90
563;DHT22;266;49.514;8.294;2023-03-11T17:12:38;4.60;99.90
563;DHT22;266;49.514;8.294;2023-03-11T17:15:07;4.60;99.90
563;DHT22;266;49.514;8.294;2023-03-11T17:17:35;4.50;99.90
563;DHT22;266;49.514;8.294;2023-03-11T17:20:04;4.40;99.90
563;DHT22;266;49.514;8.294;2023-03-11T17:22:33;4.40;99.90
563;DHT22;266;49.514;8.294;2023-03-11T17:25:03;4.30;99.90
563;DHT22;266;49.514;8.294;2023-03-11T17:27:31;4.20;99.90
563;DHT22;266;49.514;8.294;2023-03-11T17:30:00;4.20;99.90